Terminal Aerodrome Forecast
Issued by NWS North Platte, NE

Home | Current Version | Previous Version | Graphics & Text | Print | Product List | Glossary On
Versions: 1 2 3 4 5 6 7 8 9 10 11 12 13 14 15
000
FTUS43 KLBF 230400 AAA
TAFVTN
TAF AMD
KVTN 230425Z 2304/2324 03006KT P6SM SKC
      TEMPO 2304/2307 5SM -TSRA BKN040CB
     FM230900 15004KT P6SM SCT150
      TEMPO 2309/2312 5SM -TSRA BKN050CB
     FM231400 15008KT P6SM SKC=

USA.gov is the U.S. government's official web portal to all federal, state and local government web resources and services.